Terminal Aerodrome Forecast
Issued by NWS Corpus Christi, TX

Home | Current Version | Previous Version | Text Only | Print | Product List | Glossary On
Versions: 1 2 3 4 5 6 7 8 9 10 11 12 13 14 15 16 17 18
376
FTUS44 KCRP 252338
TAFCRP
TAF
KCRP 252338Z 2600/2624 09011KT P6SM SCT025
     FM260600 06003KT P6SM FEW001 SCT025
      TEMPO 2610/2612 SCT001 BKN025
     FM261500 14008G15KT P6SM SCT025 BKN250
     FM261700 15015G25KT P6SM VCSH SCT030 BKN250=

USA.gov is the U.S. government's official web portal to all federal, state and local government web resources and services.